Time;durP1;ratioP1;P1;durP2;ratioP2;P2;SDS_P1;SDS_P2;PMS_P1;PMS_P2;Temp;Humidity;BMP_temperature;BMP_pressure;BME280_temperature;BME280_humidity;BME280_pressure;Samples;Min_cycle;Max_cycle;Signal;HPM_P1;HPM_P2
2021/08/22 00:01:00;;;;;;;7.07;1.73;;;;;;;16.19;83.49;101009.66;2625672;36;20033;-76
2021/08/22 00:03:28;;;;;;;2.30;1.10;;;;;;;16.20;84.82;101027.16;2627358;36;20562;-76
2021/08/22 00:05:56;;;;;;;5.05;1.35;;;;;;;16.12;83.57;101008.19;2626245;36;20030;-76
2021/08/22 00:08:23;;;;;;;2.70;1.20;;;;;;;16.12;83.60;101026.63;2644908;36;20018;-75
2021/08/22 00:10:52;;;;;;;4.15;1.30;;;;;;;16.13;83.25;101036.25;2626134;36;20030;-76
2021/08/22 00:13:21;;;;;;;4.18;1.50;;;;;;;16.02;82.22;101028.78;2625328;36;20026;-75
2021/08/22 00:15:49;;;;;;;3.03;1.08;;;;;;;16.04;84.59;101031.34;2627810;36;20034;-75
2021/08/22 00:18:17;;;;;;;5.70;1.50;;;;;;;16.01;83.09;101042.00;2626788;36;20041;-76
2021/08/22 00:20:45;;;;;;;3.42;1.23;;;;;;;15.99;81.88;101043.84;2643291;36;20078;-76
2021/08/22 00:23:12;;;;;;;5.28;1.15;;;;;;;15.92;83.17;101031.84;2625972;36;20058;-76
2021/08/22 00:25:39;;;;;;;4.28;1.50;;;;;;;15.90;82.49;101038.94;2644029;36;20095;-76
2021/08/22 00:28:07;;;;;;;3.67;1.20;;;;;;;15.90;82.45;101044.19;2646228;36;20030;-76
2021/08/22 00:30:37;;;;;;;3.10;1.33;;;;;;;15.79;82.25;101024.41;2645076;36;20018;-76
2021/08/22 00:33:04;;;;;;;4.28;1.55;;;;;;;15.83;81.79;101044.44;2649387;36;20031;-76
2021/08/22 00:35:34;;;;;;;3.58;1.58;;;;;;;15.73;80.56;101032.56;2628270;36;20090;-76
2021/08/22 00:38:01;;;;;;;3.50;1.45;;;;;;;15.79;81.56;101053.38;2647920;36;20038;-76
2021/08/22 00:40:28;;;;;;;4.00;1.27;;;;;;;15.71;82.09;101044.03;2646760;36;20030;-76
2021/08/22 00:42:56;;;;;;;2.58;1.08;;;;;;;15.70;81.84;101043.19;2627306;36;20155;-76
2021/08/22 00:45:23;;;;;;;3.88;1.50;;;;;;;15.65;82.02;101045.13;2648570;36;20035;-76
2021/08/22 00:47:50;;;;;;;4.07;1.30;;;;;;;15.64;82.03;101047.84;2630913;36;20022;-76
2021/08/22 00:50:20;;;;;;;3.47;1.42;;;;;;;15.63;82.65;101057.53;2666428;36;20026;-77
2021/08/22 00:52:50;;;;;;;2.92;1.25;;;;;;;15.58;82.35;101059.44;2645549;36;20037;-77
2021/08/22 00:55:20;;;;;;;5.25;1.33;;;;;;;15.57;81.83;101063.00;2630067;36;20541;-76
2021/08/22 00:57:53;;;;;;;9.85;1.50;;;;;;;15.54;81.21;101058.69;2649686;36;20035;-77
2021/08/22 01:00:21;;;;;;;3.30;1.42;;;;;;;15.44;82.10;101056.44;2650004;36;20581;-77
2021/08/22 01:03:01;;;;;;;4.03;1.48;;;;;;;15.54;81.41;101068.34;2646260;36;20026;-77
2021/08/22 01:05:46;;;;;;;2.88;1.23;;;;;;;15.51;81.30;101073.72;2647069;36;20023;-76
2021/08/22 01:08:31;;;;;;;3.47;1.30;;;;;;;15.46;81.78;101070.41;2663263;36;20029;-77
2021/08/22 01:11:05;;;;;;;4.55;1.55;;;;;;;15.44;81.24;101077.50;2645809;36;20061;-76
2021/08/22 01:13:37;;;;;;;3.67;1.20;;;;;;;15.40;80.87;101070.63;2656509;36;20078;-77
2021/08/22 01:16:07;;;;;;;6.22;1.95;;;;;;;15.40;81.30;101076.75;2626391;36;20048;-76
2021/08/22 01:18:38;;;;;;;3.63;1.30;;;;;;;15.39;81.63;101079.44;2646847;36;20026;-77
2021/08/22 01:21:13;;;;;;;5.07;1.40;;;;;;;15.35;81.66;101083.94;2646429;36;20022;-76
2021/08/22 01:23:53;;;;;;;4.30;1.40;;;;;;;15.30;81.60;101078.84;2645539;36;20045;-77
2021/08/22 01:26:28;;;;;;;5.00;1.52;;;;;;;15.30;81.59;101091.16;2647638;36;20118;-76
2021/08/22 01:28:59;;;;;;;5.88;1.75;;;;;;;15.26;81.09;101094.84;2647182;36;20031;-76
2021/08/22 01:31:33;;;;;;;3.28;1.08;;;;;;;15.22;82.40;101094.09;2645955;36;20041;-77
2021/08/22 01:34:03;;;;;;;3.08;1.20;;;;;;;15.24;82.18;101094.88;2646051;36;20094;-77
2021/08/22 01:36:34;;;;;;;4.57;1.20;;;;;;;15.21;82.09;101097.63;2657281;36;20034;-76
2021/08/22 01:39:03;;;;;;;3.38;1.50;;;;;;;15.21;80.87;101100.25;2647741;36;20086;-77
2021/08/22 01:41:31;;;;;;;3.88;1.42;;;;;;;15.17;82.07;101106.53;2631023;36;2004715;-77
2021/08/22 01:43:59;;;;;;;;;;;;;;;15.19;80.85;101109.09;2627389;36;20022;-77
2021/08/22 01:46:36;;;;;;;3.58;1.40;;;;;;;15.13;81.45;101104.91;2645248;36;19998;-77
2021/08/22 01:49:07;;;;;;;6.40;1.83;;;;;;;15.12;80.86;101107.63;2648266;36;20030;-76
2021/08/22 01:51:35;;;;;;;5.43;1.75;;;;;;;15.02;81.01;101096.56;2633130;36;20027;-77
2021/08/22 01:54:07;;;;;;;4.53;1.67;;;;;;;15.07;81.05;101105.16;2628269;36;20038;-77
2021/08/22 01:56:38;;;;;;;4.63;1.73;;;;;;;15.06;81.75;101108.69;2628450;36;20030;-77
2021/08/22 01:59:07;;;;;;;4.80;1.45;;;;;;;15.04;82.21;101111.34;2629794;36;20022;-77
2021/08/22 02:01:36;;;;;;;3.80;1.52;;;;;;;15.02;81.92;101112.34;2627445;36;21797;-76
2021/08/22 02:04:38;;;;;;;4.50;1.33;;;;;;;15.03;82.05;101116.69;2646221;36;20026;-76
2021/08/22 02:07:09;;;;;;;3.85;1.58;;;;;;;14.97;81.77;101109.00;2610597;36;2004304;-77
2021/08/22 02:09:59;;;;;;;3.50;1.30;;;;;;;14.98;81.86;101121.22;2626228;36;21630;-77
2021/08/22 02:12:29;;;;;;;4.72;1.25;;;;;;;14.96;82.50;101134.44;2644939;36;20566;-76
2021/08/22 02:15:21;;;;;;;5.18;1.60;;;;;;;14.96;82.47;101131.81;2643278;36;20038;-76
2021/08/22 02:17:54;;;;;;;4.70;1.60;;;;;;;14.91;81.92;101127.63;2608661;36;2004546;-77
2021/08/22 02:20:22;;;;;;;3.80;1.48;;;;;;;14.91;81.93;101140.78;2645533;36;20030;-76
2021/08/22 02:22:50;;;;;;;4.88;1.75;;;;;;;14.81;82.30;101119.19;2646245;36;20058;-76
2021/08/22 02:25:20;;;;;;;4.28;1.70;;;;;;;14.85;81.90;101135.69;2643459;36;20893;-77
2021/08/22 02:27:48;;;;;;;4.38;1.42;;;;;;;14.89;82.21;101145.22;2643708;36;20034;-76
2021/08/22 02:30:17;;;;;;;4.88;1.70;;;;;;;14.90;81.48;101149.53;2629031;36;20023;-76
2021/08/22 02:32:48;;;;;;;5.60;2.20;;;;;;;14.88;82.21;101148.75;2628583;36;20070;-76
2021/08/22 02:35:15;;;;;;;5.45;1.95;;;;;;;14.79;81.85;101142.03;2643872;36;20048;-76
2021/08/22 02:37:44;;;;;;;4.93;1.83;;;;;;;14.84;82.34;101149.75;2625034;36;20069;-77
2021/08/22 02:40:14;;;;;;;4.22;1.50;;;;;;;14.85;82.63;101157.63;2645997;36;20026;-77
2021/08/22 02:42:43;;;;;;;3.67;1.42;;;;;;;14.77;82.95;101147.34;2645028;36;20554;-77
2021/08/22 02:45:10;;;;;;;6.22;1.63;;;;;;;14.83;82.84;101163.81;2636648;36;20036;-76
2021/08/22 02:47:37;;;;;;;3.95;1.67;;;;;;;14.85;83.53;101168.13;2645987;36;20114;-77
2021/08/22 02:50:07;;;;;;;6.25;1.98;;;;;;;14.87;83.63;101168.94;2627266;36;20794;-76
2021/08/22 02:52:34;;;;;;;3.80;1.45;;;;;;;14.89;83.87;101174.13;2627140;36;20085;-77
2021/08/22 02:55:01;;;;;;;9.00;1.63;;;;;;;14.86;83.92;101169.00;2644329;36;20098;-77
2021/08/22 02:57:28;;;;;;;4.30;1.67;;;;;;;14.95;84.24;101176.56;2627308;36;20046;-76
2021/08/22 02:59:56;;;;;;;7.10;1.80;;;;;;;14.96;83.78;101175.66;2627758;36;20038;-77
2021/08/22 03:02:24;;;;;;;5.38;1.90;;;;;;;14.95;84.07;101169.56;2628610;36;20462;-76
2021/08/22 03:04:51;;;;;;;3.25;1.00;;;;;;;15.04;84.32;101184.13;2637758;36;20030;-77
2021/08/22 03:07:23;;;;;;;6.15;1.80;;;;;;;15.10;83.73;101189.19;2662871;36;20561;-77
2021/08/22 03:09:50;;;;;;;4.10;2.13;;;;;;;14.99;83.58;101176.41;2644437;36;20031;-77
2021/08/22 03:12:19;;;;;;;6.28;1.98;;;;;;;15.10;83.70;101186.56;2625503;36;20034;-77
2021/08/22 03:14:48;;;;;;;4.78;1.95;;;;;;;15.12;83.49;101191.78;2627097;36;20035;-77
2021/08/22 03:17:17;;;;;;;5.93;1.92;;;;;;;15.13;83.48;101189.09;2648196;36;20023;-77
2021/08/22 03:19:44;;;;;;;5.68;1.65;;;;;;;15.09;83.96;101182.22;2644354;36;20041;-77
2021/08/22 03:22:14;;;;;;;4.20;1.40;;;;;;;15.21;83.59;101197.59;2630033;36;20644;-77
2021/08/22 03:24:41;;;;;;;4.80;1.70;;;;;;;15.21;83.27;101202.88;2626567;36;20037;-76
2021/08/22 03:27:08;;;;;;;9.63;2.17;;;;;;;15.25;83.52;101206.22;2645399;36;20043;-77
2021/08/22 03:29:36;;;;;;;6.18;2.25;;;;;;;15.24;83.13;101194.84;2627100;36;20331;-77
2021/08/22 03:32:04;;;;;;;3.83;1.27;;;;;;;15.29;83.09;101206.06;2623636;36;20057;-76
2021/08/22 03:34:31;;;;;;;4.07;1.92;;;;;;;15.28;83.60;101196.47;2648880;36;20030;-77
2021/08/22 03:36:59;;;;;;;5.40;1.92;;;;;;;15.35;83.09;101206.78;2647456;36;20034;-77
2021/08/22 03:39:26;;;;;;;5.18;1.80;;;;;;;15.32;83.47;101192.81;2644112;36;20129;-76
2021/08/22 03:41:55;;;;;;;5.85;2.13;;;;;;;15.36;83.18;101182.19;2628956;36;20050;-76
2021/08/22 03:44:22;;;;;;;5.15;1.77;;;;;;;15.43;83.75;101191.59;2629420;36;20037;-76
2021/08/22 03:46:49;;;;;;;8.20;1.60;;;;;;;15.42;83.87;101182.84;2626170;36;20026;-77
2021/08/22 03:49:20;;;;;;;3.95;1.33;;;;;;;15.46;83.60;101183.56;2645257;36;20036;-77
2021/08/22 03:51:47;;;;;;;2.42;1.00;;;;;;;15.50;83.68;101187.81;2644123;36;20046;-76
2021/08/22 03:54:20;;;;;;;3.20;1.50;;;;;;;15.57;84.05;101189.34;2629653;36;20026;-76
2021/08/22 03:56:48;;;;;;;3.38;1.50;;;;;;;15.61;83.99;101200.59;2644608;36;20026;-77
2021/08/22 03:59:15;;;;;;;2.72;1.20;;;;;;;15.60;84.35;101196.25;2627077;36;20082;-77
2021/08/22 04:01:42;;;;;;;4.70;1.50;;;;;;;15.64;84.15;101195.28;2627710;36;20102;-77
2021/08/22 04:04:23;;;;;;;3.38;1.30;;;;;;;15.57;83.63;101184.94;2647166;36;20407;-77
2021/08/22 04:06:52;;;;;;;3.08;1.33;;;;;;;15.69;83.81;101196.81;2630175;36;20053;-77
2021/08/22 04:09:20;;;;;;;4.38;1.70;;;;;;;15.73;84.28;101198.44;2627104;36;20078;-77
2021/08/22 04:11:54;;;;;;;3.33;1.23;;;;;;;15.80;84.17;101207.81;2627354;36;20131;-77
2021/08/22 04:14:23;;;;;;;3.95;1.10;;;;;;;15.85;84.26;101209.44;2646355;36;20022;-76
2021/08/22 04:16:50;;;;;;;3.85;1.48;;;;;;;15.86;83.64;101211.16;2645147;36;20027;-76
2021/08/22 04:19:18;;;;;;;4.45;1.65;;;;;;;15.85;82.98;101202.38;2641252;36;20038;-77
2021/08/22 04:21:45;;;;;;;3.20;1.40;;;;;;;15.92;83.56;101209.16;2643886;36;20093;-77
2021/08/22 04:24:12;;;;;;;3.00;1.38;;;;;;;15.93;83.79;101212.66;2644686;36;20026;-77
2021/08/22 04:26:40;;;;;;;2.45;1.00;;;;;;;15.94;83.68;101214.38;2627733;36;20058;-77
2021/08/22 04:29:10;;;;;;;3.22;1.15;;;;;;;16.01;83.76;101226.38;2643821;36;20042;-76
2021/08/22 04:31:38;;;;;;;2.28;0.98;;;;;;;16.02;83.89;101217.59;2644919;36;20082;-77
2021/08/22 04:34:07;;;;;;;6.70;1.42;;;;;;;15.99;83.24;101212.44;2625370;36;20030;-76
2021/08/22 04:36:34;;;;;;;2.80;1.00;;;;;;;16.01;83.52;101218.47;2630980;36;20053;-77
2021/08/22 04:39:03;;;;;;;3.17;1.30;;;;;;;16.07;83.24;101221.78;2641778;36;20046;-77
2021/08/22 04:41:31;;;;;;;2.08;0.82;;;;;;;16.02;83.26;101217.59;2643754;36;20079;-76
2021/08/22 04:43:59;;;;;;;2.50;0.93;;;;;;;16.08;82.91;101234.03;2644019;36;20541;-76
2021/08/22 04:46:26;;;;;;;2.85;1.17;;;;;;;16.09;83.26;101232.25;2644853;36;20550;-76
2021/08/22 04:48:54;;;;;;;2.67;1.10;;;;;;;16.07;83.54;101227.03;2625421;36;20030;-76
2021/08/22 04:51:20;;;;;;;2.75;0.98;;;;;;;16.08;83.30;101231.38;2615333;36;20034;-77
2021/08/22 04:53:47;;;;;;;3.80;1.25;;;;;;;16.07;83.10;101231.47;2613806;36;20162;-77
2021/08/22 04:56:27;;;;;;;2.17;0.80;;;;;;;16.12;83.63;101241.78;1970497;36;10002213;-77
2021/08/22 04:58:57;;;;;;;3.63;1.35;;;;;;;16.07;83.18;101232.31;1430200;36;10001827;-77
2021/08/22 05:01:24;;;;;;;3.58;1.20;;;;;;;16.00;83.43;101225.53;2645382;36;20057;-76
2021/08/22 05:03:53;;;;;;;3.90;1.70;;;;;;;16.02;82.91;101233.41;2642893;36;20672;-76
2021/08/22 05:06:20;;;;;;;5.72;2.00;;;;;;;16.01;82.43;101236.91;2646412;36;20023;-77
2021/08/22 05:08:47;;;;;;;4.13;1.65;;;;;;;16.08;82.58;101251.59;2624566;36;20030;-77
2021/08/22 05:11:14;;;;;;;4.40;1.42;;;;;;;15.99;82.73;101242.25;2636246;36;20656;-76
2021/08/22 05:13:42;;;;;;;5.05;1.85;;;;;;;16.05;82.91;101256.97;2624328;36;20035;-77
2021/08/22 05:16:09;;;;;;;5.30;1.77;;;;;;;15.96;82.30;101249.41;2646813;36;20026;-76
2021/08/22 05:18:36;;;;;;;5.82;1.70;;;;;;;16.02;82.02;101265.00;2626701;36;20079;-77
2021/08/22 05:21:04;;;;;;;6.72;2.30;;;;;;;15.98;82.85;101258.13;2641470;36;20094;-77
2021/08/22 05:23:31;;;;;;;6.10;1.50;;;;;;;16.00;82.51;101262.41;2626765;36;20038;-77
2021/08/22 05:25:58;;;;;;;3.50;1.50;;;;;;;16.00;82.67;101262.41;2646306;36;20034;-77
2021/08/22 05:28:26;;;;;;;5.00;1.92;;;;;;;16.00;82.57;101266.81;2627223;36;20023;-77
2021/08/22 05:30:53;;;;;;;4.63;1.77;;;;;;;16.02;81.82;101275.56;2627488;36;20034;-76
2021/08/22 05:33:22;;;;;;;4.35;1.73;;;;;;;16.06;82.47;101287.66;2627863;36;20034;-77
2021/08/22 05:35:49;;;;;;;5.22;1.42;;;;;;;16.01;83.17;101281.72;2632143;36;20038;-76
2021/08/22 05:38:17;;;;;;;5.32;2.03;;;;;;;16.00;82.42;101288.75;2643822;36;20038;-77
2021/08/22 05:40:44;;;;;;;4.38;1.20;;;;;;;16.07;82.96;101302.59;2642014;36;20031;-76
2021/08/22 05:43:11;;;;;;;5.70;1.47;;;;;;;16.05;82.75;101301.75;2627275;36;20038;-77
2021/08/22 05:45:41;;;;;;;6.38;1.70;;;;;;;16.10;83.51;101302.47;2628534;36;20314;-78
2021/08/22 05:48:08;;;;;;;4.40;1.58;;;;;;;16.06;83.28;101308.75;2642718;36;20034;-76
2021/08/22 05:50:36;;;;;;;3.75;1.45;;;;;;;16.16;83.56;101328.59;2623978;36;20571;-77
2021/08/22 05:53:03;;;;;;;3.42;1.10;;;;;;;16.12;83.25;101313.81;2623608;36;20030;-77
2021/08/22 05:55:30;;;;;;;4.72;1.75;;;;;;;16.12;83.49;101313.81;2623050;36;20061;-76
2021/08/22 05:57:57;;;;;;;3.65;1.40;;;;;;;16.20;83.15;101327.56;2626491;36;20042;-77
2021/08/22 06:00:24;;;;;;;4.78;2.03;;;;;;;16.21;82.70;101328.41;2643161;36;20117;-77
2021/08/22 06:02:51;;;;;;;5.43;1.65;;;;;;;16.24;83.21;101325.69;2630776;36;21025;-78
2021/08/22 06:05:20;;;;;;;2.95;1.10;;;;;;;16.30;83.37;101328.09;2624341;36;20562;-76
2021/08/22 06:07:47;;;;;;;3.78;1.40;;;;;;;16.29;83.50;101331.66;2624525;36;20565;-76
2021/08/22 06:10:14;;;;;;;5.55;1.90;;;;;;;16.32;83.06;101332.41;2628903;36;20645;-77
2021/08/22 06:12:42;;;;;;;4.88;2.20;;;;;;;16.37;82.98;101344.53;2626396;36;20057;-76
2021/08/22 06:15:10;;;;;;;6.40;2.42;;;;;;;16.33;82.72;101334.13;2626608;36;20034;-77
2021/08/22 06:17:38;;;;;;;4.43;1.70;;;;;;;16.40;82.91;101337.38;2641513;36;20078;-76
2021/08/22 06:20:12;;;;;;;6.60;2.17;;;;;;;16.45;83.45;101342.50;2642461;36;20043;-76
2021/08/22 06:22:39;;;;;;;4.05;1.70;;;;;;;16.43;83.10;101339.06;2642226;36;20146;-77
2021/08/22 06:25:09;;;;;;;4.90;1.63;;;;;;;16.48;83.00;101350.28;2628607;36;20046;-77
2021/08/22 06:27:37;;;;;;;4.38;1.58;;;;;;;16.53;83.19;101351.00;2644613;36;20041;-77
2021/08/22 06:30:06;;;;;;;5.60;1.92;;;;;;;16.52;82.94;101352.72;2626060;36;20078;-77
2021/08/22 06:32:33;;;;;;;3.40;1.33;;;;;;;16.54;83.05;101350.06;2642644;36;20046;-77
2021/08/22 06:35:00;;;;;;;5.03;1.92;;;;;;;16.50;82.97;101348.44;2644981;31;20562;-77
2021/08/22 06:37:27;;;;;;;3.92;1.48;;;;;;;16.58;82.55;101359.59;2624471;36;20034;-76
2021/08/22 06:39:54;;;;;;;4.20;1.70;;;;;;;16.58;82.45;101354.31;2642452;36;20041;-77
2021/08/22 06:42:22;;;;;;;4.20;1.42;;;;;;;16.72;82.80;101374.91;2624282;36;20094;-77
2021/08/22 06:44:49;;;;;;;5.30;1.70;;;;;;;16.73;82.76;101380.16;2626274;36;20430;-77
2021/08/22 06:47:18;;;;;;;3.58;1.38;;;;;;;16.72;82.86;101361.72;2624229;36;20029;-76
2021/08/22 06:49:45;;;;;;;3.72;1.50;;;;;;;16.81;82.81;101378.06;2623521;36;20128;-76
2021/08/22 06:52:13;;;;;;;5.18;1.63;;;;;;;16.83;82.66;101373.59;2622153;36;20162;-77
2021/08/22 06:54:41;;;;;;;3.72;1.48;;;;;;;16.88;82.75;101381.34;2623007;36;20079;-76
2021/08/22 06:57:11;;;;;;;5.00;1.48;;;;;;;16.95;82.68;101387.25;2619525;36;20038;-77
2021/08/22 06:59:40;;;;;;;3.85;1.05;;;;;;;16.99;82.63;101388.84;2639623;36;20026;-77
2021/08/22 07:02:10;;;;;;;6.35;1.50;;;;;;;17.03;83.03;101382.50;2622201;36;20033;-76
2021/08/22 07:04:38;;;;;;;4.43;1.50;;;;;;;17.08;82.48;101394.63;2638892;36;20043;-77
2021/08/22 07:07:06;;;;;;;3.83;1.63;;;;;;;17.14;82.32;101398.81;2620879;36;20039;-77
2021/08/22 07:09:33;;;;;;;2.83;0.98;;;;;;;17.08;82.59;101381.44;2622679;36;20026;-76
2021/08/22 07:12:00;;;;;;;4.60;1.85;;;;;;;17.23;82.81;101395.78;2640105;36;20877;-77
2021/08/22 07:14:28;;;;;;;4.40;1.92;;;;;;;17.31;82.56;101404.28;2621647;31;20031;-77
2021/08/22 07:16:56;;;;;;;4.65;1.73;;;;;;;17.34;82.61;101398.88;2639853;36;20573;-77
2021/08/22 07:19:27;;;;;;;4.30;1.30;;;;;;;17.44;82.65;101403.81;2637960;36;20498;-77
2021/08/22 07:21:56;;;;;;;4.25;1.63;;;;;;;17.46;82.19;101401.94;2623258;31;20030;-76
2021/08/22 07:24:23;;;;;;;5.20;1.45;;;;;;;17.44;82.07;101403.81;2639065;36;20054;-77
2021/08/22 07:26:50;;;;;;;4.32;1.50;;;;;;;17.54;82.03;101410.44;2620846;36;20155;-77
2021/08/22 07:29:18;;;;;;;2.63;1.25;;;;;;;17.62;82.19;101424.19;2623256;36;20030;-77
2021/08/22 07:31:46;;;;;;;3.00;1.45;;;;;;;17.60;81.51;101415.47;2618333;36;20042;-77
2021/08/22 07:34:14;;;;;;;3.83;1.70;;;;;;;17.72;81.45;101436.09;2624617;36;20041;-76
2021/08/22 07:36:44;;;;;;;4.15;1.85;;;;;;;17.74;81.39;101434.28;2640689;36;20038;-77
2021/08/22 07:39:13;;;;;;;6.07;1.70;;;;;;;17.78;81.26;101441.16;2621304;36;20054;-77
2021/08/22 07:41:40;;;;;;;3.90;1.50;;;;;;;17.74;81.64;101433.41;2640345;36;20137;-77
2021/08/22 07:44:07;;;;;;;4.93;1.98;;;;;;;17.81;81.32;101445.47;2641336;36;20034;-77
2021/08/22 07:46:34;;;;;;;3.80;1.52;;;;;;;17.80;81.62;101439.31;2622323;36;20034;-77
2021/08/22 07:49:02;;;;;;;4.82;2.03;;;;;;;17.87;80.79;101456.63;2623692;31;20070;-76
2021/08/22 07:51:29;;;;;;;3.03;1.35;;;;;;;17.86;81.13;101449.63;2622332;36;20041;-77
2021/08/22 07:53:57;;;;;;;4.10;1.80;;;;;;;17.92;81.23;101463.50;2639457;36;20045;-77
2021/08/22 07:56:25;;;;;;;4.32;1.63;;;;;;;17.92;80.94;101467.00;2621333;36;20031;-77
2021/08/22 07:58:52;;;;;;;3.90;1.55;;;;;;;17.92;81.26;101468.78;2639538;36;20130;-77
2021/08/22 08:01:20;;;;;;;3.88;1.75;;;;;;;17.94;81.25;101469.59;2641254;36;20082;-77
2021/08/22 08:03:47;;;;;;;4.38;1.77;;;;;;;17.92;81.15;101468.78;2631207;36;20054;-76
2021/08/22 08:06:16;;;;;;;2.90;1.42;;;;;;;17.98;81.80;101479.09;2621324;36;20038;-77
2021/08/22 08:08:43;;;;;;;2.90;1.20;;;;;;;17.96;81.54;101471.25;2639931;36;20035;-77
2021/08/22 08:11:11;;;;;;;2.90;1.25;;;;;;;18.04;82.10;101484.13;2622144;36;20026;-77
2021/08/22 08:13:39;;;;;;;2.13;0.88;;;;;;;17.97;81.77;101461.53;2638486;36;20041;-77
2021/08/22 08:16:07;;;;;;;4.53;1.80;;;;;;;18.12;81.93;101479.41;2642243;36;20034;-77
2021/08/22 08:18:35;;;;;;;5.45;1.55;;;;;;;18.17;81.45;101481.84;2620608;36;20030;-77
2021/08/22 08:21:04;;;;;;;6.05;2.05;;;;;;;18.24;81.63;101481.53;2617501;36;20041;-77
2021/08/22 08:23:31;;;;;;;2.78;1.20;;;;;;;18.33;81.53;101486.44;2636513;36;20038;-77
2021/08/22 08:25:58;;;;;;;2.65;1.17;;;;;;;18.36;81.86;101486.31;2622053;31;20041;-77
2021/08/22 08:28:25;;;;;;;4.22;1.77;;;;;;;18.46;81.14;101492.06;2623619;36;20042;-77
2021/08/22 08:30:52;;;;;;;3.92;1.83;;;;;;;18.44;80.70;101480.69;2620229;31;20038;-77
2021/08/22 08:33:19;;;;;;;2.22;1.02;;;;;;;18.54;81.31;101483.78;2620312;31;20512;-77
2021/08/22 08:35:46;;;;;;;4.78;1.60;;;;;;;18.61;80.58;101496.69;2617604;36;20030;-77
2021/08/22 08:38:13;;;;;;;4.80;1.52;;;;;;;18.67;80.70;101495.56;2618338;36;20129;-77
2021/08/22 08:40:43;;;;;;;3.50;1.75;;;;;;;18.67;80.75;101491.13;2617665;36;20086;-76
2021/08/22 08:43:10;;;;;;;3.72;1.58;;;;;;;18.83;80.60;101507.22;2617991;36;20041;-77
2021/08/22 08:45:49;;;;;;;4.32;1.75;;;;;;;18.93;80.88;101503.22;2619600;36;20943;-77
2021/08/22 08:48:25;;;;;;;2.67;1.33;;;;;;;19.04;81.80;101509.84;2635332;36;20031;-77
2021/08/22 08:51:08;;;;;;;3.75;1.63;;;;;;;19.10;82.29;101509.56;2637289;36;20035;-77
2021/08/22 08:53:43;;;;;;;5.35;1.98;;;;;;;19.19;80.75;101517.94;2633849;36;20038;-77
2021/08/22 08:56:33;;;;;;;4.00;1.70;;;;;;;19.30;82.63;101522.75;2654366;36;20751;-77
2021/08/22 08:59:01;;;;;;;4.78;1.58;;;;;;;19.36;80.32;101532.19;2581624;36;2004601;-77
2021/08/22 09:01:28;;;;;;;2.75;1.25;;;;;;;19.40;79.86;101529.31;2616689;36;20041;-77
2021/08/22 09:04:16;;;;;;;;;;;;;;;19.61;84.03;101526.63;2615615;36;20026;-77
2021/08/22 09:07:02;;;;;;;3.90;1.38;;;;;;;19.69;80.29;101520.06;2633755;36;19946;-77
2021/08/22 09:10:08;;;;;;;3.03;1.38;;;;;;;19.93;81.90;101519.81;2632273;36;20206;-77
2021/08/22 09:13:13;;;;;;;3.03;1.58;;;;;;;20.09;82.59;101526.06;2594392;36;2004289;-77
2021/08/22 09:16:20;;;;;;;3.58;1.67;;;;;;;20.21;81.25;101521.94;2594689;36;2004476;-76
2021/08/22 09:19:37;;;;;;;2.50;1.27;;;;;;;20.40;82.75;101533.34;2579988;36;2004471;-77
2021/08/22 09:22:22;;;;;;;3.88;1.48;;;;;;;20.58;81.76;101526.31;2596639;36;2004402;-77
2021/08/22 09:24:51;;;;;;;3.13;1.55;;;;;;;20.63;77.22;101532.22;2577522;36;2004380;-77
2021/08/22 09:27:56;;;;;;;4.63;1.90;;;;;;;20.83;80.46;101536.47;2633750;36;20026;-77
2021/08/22 09:30:54;;;;;;;2.70;1.38;;;;;;;20.93;79.83;101537.75;2579036;31;2004296;-77
2021/08/22 09:33:52;;;;;;;5.70;2.08;;;;;;;20.99;78.74;101534.75;2579253;36;2004339;-77
2021/08/22 09:36:25;;;;;;;4.78;1.90;;;;;;;21.07;77.59;101538.78;2577313;36;2004545;-77
2021/08/22 09:39:30;;;;;;;4.82;2.10;;;;;;;21.15;79.08;101550.72;2632232;36;20759;-77
2021/08/22 09:42:34;;;;;;;3.60;1.52;;;;;;;21.23;79.02;101555.63;2596123;36;2004448;-77
2021/08/22 09:45:43;;;;;;;2.72;1.20;;;;;;;21.28;79.43;101553.56;2597046;36;2004763;-76
2021/08/22 09:48:29;;;;;;;3.85;1.70;;;;;;;21.38;79.06;101554.81;2593791;36;2004455;-77
2021/08/22 09:51:36;;;;;;;3.90;1.45;;;;;;;21.48;79.31;101561.34;2616503;36;20058;-77
2021/08/22 09:54:09;;;;;;;3.33;1.60;;;;;;;21.62;77.97;101565.06;2595839;36;2004750;-77
2021/08/22 09:57:13;;;;;;;2.65;1.25;;;;;;;21.75;79.24;101558.13;2650352;31;20035;-77
2021/08/22 10:00:18;;;;;;;3.28;1.63;;;;;;;21.86;78.57;101566.38;2596033;36;2004795;-77
2021/08/22 10:03:18;;;;;;;4.57;1.80;;;;;;;21.81;74.78;101565.75;2597007;36;2004699;-77
2021/08/22 10:06:07;;;;;;;2.80;1.58;;;;;;;21.88;76.94;101574.25;2580420;31;2004434;-77
2021/08/22 10:09:00;;;;;;;6.13;2.30;;;;;;;21.82;76.06;101572.78;2634038;36;20038;-77
2021/08/22 10:11:57;;;;;;;1.90;0.93;;;;;;;21.77;77.12;101566.88;2634515;31;20035;-78
2021/08/22 10:14:26;;;;;;;3.33;1.52;;;;;;;21.66;75.20;101569.28;2579296;36;2004296;-77
2021/08/22 10:16:54;;;;;;;4.35;1.92;;;;;;;21.66;76.20;101570.13;2634631;36;20034;-77
2021/08/22 10:19:31;;;;;;;5.53;2.28;;;;;;;21.73;76.34;101575.97;2613915;36;20046;-77
2021/08/22 10:22:18;;;;;;;4.57;2.13;;;;;;;21.88;77.50;101580.41;2632347;36;20041;-77
2021/08/22 10:24:46;;;;;;;5.35;2.22;;;;;;;21.98;74.96;101581.63;2650619;36;20087;-77
2021/08/22 10:27:34;;;;;;;4.18;2.00;;;;;;;22.25;79.12;101578.34;2634277;31;20086;-77
2021/08/22 10:30:02;;;;;;;4.35;2.38;;;;;;;22.35;73.90;101579.53;2628750;36;20038;-77
2021/08/22 10:32:29;;;;;;;5.43;2.20;;;;;;;22.53;75.36;101583.78;2610767;31;20593;-77
2021/08/22 10:35:12;;;;;;;4.00;2.15;;;;;;;22.83;77.50;101582.94;2632182;31;20748;-77
2021/08/22 10:37:41;;;;;;;3.05;1.55;;;;;;;22.93;74.62;101584.13;2628977;36;20061;-77
2021/08/22 10:40:23;;;;;;;6.65;2.70;;;;;;;23.15;76.33;101588.97;2609520;31;20045;-77
2021/08/22 10:43:05;;;;;;;3.97;2.05;;;;;;;23.27;75.98;101587.41;2631621;36;20031;-77
2021/08/22 10:45:50;;;;;;;3.42;1.70;;;;;;;23.35;76.38;101593.09;2628570;36;20030;-77
2021/08/22 10:48:23;;;;;;;3.00;1.70;;;;;;;23.39;75.28;101594.63;2628556;36;20897;-77
2021/08/22 10:50:59;;;;;;;4.78;2.00;;;;;;;23.48;75.84;101593.19;2629088;36;20050;-76
2021/08/22 10:53:35;;;;;;;3.90;1.77;;;;;;;23.48;72.74;101599.38;2630692;36;20057;-77
2021/08/22 10:56:25;;;;;;;2.50;1.20;;;;;;;23.69;76.78;101601.69;2628564;36;20038;-77
2021/08/22 10:58:55;;;;;;;2.50;1.45;;;;;;;23.73;74.42;101605.88;2630441;36;20030;-77
2021/08/22 11:01:23;;;;;;;5.35;2.00;;;;;;;23.79;71.74;101610.81;2628507;36;20039;-77
2021/08/22 11:04:02;;;;;;;4.32;2.15;;;;;;;24.03;75.55;101608.38;2624183;31;20034;-77
2021/08/22 11:06:29;;;;;;;5.40;2.70;;;;;;;24.04;70.40;101605.59;2629189;36;20031;-77
2021/08/22 11:08:56;;;;;;;;;;;;;;;24.38;77.77;101606.09;2611683;36;20049;-78
2021/08/22 11:11:23;;;;;;;5.30;2.33;;;;;;;24.46;70.69;101606.44;2609737;36;19977;-78
2021/08/22 11:13:59;;;;;;;3.50;2.28;;;;;;;24.78;73.29;101608.75;2615368;36;20034;-78
2021/08/22 11:16:46;;;;;;;3.33;1.52;;;;;;;25.09;74.69;101616.41;2628851;31;20031;-77
2021/08/22 11:19:13;;;;;;;3.72;1.92;;;;;;;25.23;68.48;101611.91;2573375;36;2004799;-77
2021/08/22 11:21:40;;;;;;;;;;;;;;;25.72;78.17;101625.34;2628585;36;20043;-77
2021/08/22 11:24:08;;;;;;;4.45;2.20;;;;;;;25.76;62.80;101623.34;2610644;31;19950;-77
2021/08/22 11:26:35;;;;;;;2.88;1.58;;;;;;;25.96;65.72;101617.41;2607210;36;20030;-77
2021/08/22 11:29:02;;;;;;;;;;;;;;;26.31;74.48;101619.31;2614995;36;20042;-77
2021/08/22 11:31:34;;;;;;;3.88;1.90;;;;;;;26.28;68.06;101612.34;2611067;31;19954;-78
2021/08/22 11:34:14;;;;;;;2.53;1.60;;;;;;;26.38;68.49;101609.81;2646470;36;20069;-77
2021/08/22 11:36:42;;;;;;;2.67;1.50;;;;;;;26.36;66.55;101622.50;2627624;36;20018;-77
2021/08/22 11:39:10;;;;;;;3.63;1.70;;;;;;;26.43;65.64;101622.91;2609803;31;20122;-77
2021/08/22 11:41:42;;;;;;;6.80;2.20;;;;;;;26.51;64.31;101621.38;2611335;36;20030;-77
2021/08/22 11:44:09;;;;;;;3.72;1.77;;;;;;;26.49;64.47;101623.28;2647390;36;20030;-77
2021/08/22 11:46:37;;;;;;;;;;;;;;;26.71;71.54;101627.03;2612551;36;20061;-77